sensor_id;sensor_type;location;lat;lon;timestamp;P1;durP1;ratioP1;P2;durP2;ratioP2
13463;SDS011;6804;48.774;9.174;2023-02-15T00:00:07;17.80;;;14.33;;
13463;SDS011;6804;48.774;9.174;2023-02-15T00:02:41;21.43;;;14.67;;
13463;SDS011;6804;48.774;9.174;2023-02-15T00:05:08;21.83;;;14.60;;
13463;SDS011;6804;48.774;9.174;2023-02-15T00:07:35;19.37;;;14.50;;
13463;SDS011;6804;48.774;9.174;2023-02-15T00:10:06;19.47;;;14.53;;
13463;SDS011;6804;48.774;9.174;2023-02-15T00:12:37;20.13;;;15.77;;
13463;SDS011;6804;48.774;9.174;2023-02-15T00:15:07;20.30;;;14.80;;
13463;SDS011;6804;48.774;9.174;2023-02-15T00:17:38;20.77;;;15.00;;
13463;SDS011;6804;48.774;9.174;2023-02-15T00:20:06;19.40;;;13.77;;
13463;SDS011;6804;48.774;9.174;2023-02-15T00:22:34;20.30;;;15.73;;
13463;SDS011;6804;48.774;9.174;2023-02-15T00:25:01;19.47;;;14.93;;
13463;SDS011;6804;48.774;9.174;2023-02-15T00:27:28;19.63;;;13.30;;
13463;SDS011;6804;48.774;9.174;2023-02-15T00:29:59;18.23;;;13.40;;
13463;SDS011;6804;48.774;9.174;2023-02-15T00:32:29;19.87;;;14.00;;
13463;SDS011;6804;48.774;9.174;2023-02-15T00:34:56;17.63;;;13.87;;
13463;SDS011;6804;48.774;9.174;2023-02-15T00:37:25;19.03;;;12.63;;
13463;SDS011;6804;48.774;9.174;2023-02-15T00:40:01;18.17;;;13.77;;
13463;SDS011;6804;48.774;9.174;2023-02-15T00:42:28;19.83;;;13.57;;
13463;SDS011;6804;48.774;9.174;2023-02-15T00:44:56;18.37;;;14.20;;
13463;SDS011;6804;48.774;9.174;2023-02-15T00:47:24;17.90;;;13.83;;
13463;SDS011;6804;48.774;9.174;2023-02-15T00:49:51;20.03;;;13.80;;
13463;SDS011;6804;48.774;9.174;2023-02-15T00:52:18;18.30;;;13.70;;
13463;SDS011;6804;48.774;9.174;2023-02-15T00:54:46;17.87;;;13.77;;
13463;SDS011;6804;48.774;9.174;2023-02-15T00:57:13;18.83;;;13.70;;
13463;SDS011;6804;48.774;9.174;2023-02-15T00:59:43;18.50;;;13.87;;
13463;SDS011;6804;48.774;9.174;2023-02-15T01:02:10;17.07;;;13.37;;
13463;SDS011;6804;48.774;9.174;2023-02-15T01:04:38;17.97;;;12.97;;
13463;SDS011;6804;48.774;9.174;2023-02-15T01:07:09;17.50;;;14.07;;
13463;SDS011;6804;48.774;9.174;2023-02-15T01:09:38;16.60;;;12.47;;
13463;SDS011;6804;48.774;9.174;2023-02-15T01:12:06;17.60;;;12.80;;
13463;SDS011;6804;48.774;9.174;2023-02-15T01:14:33;17.60;;;13.10;;
13463;SDS011;6804;48.774;9.174;2023-02-15T01:17:03;16.47;;;12.43;;
13463;SDS011;6804;48.774;9.174;2023-02-15T01:19:30;17.30;;;13.30;;
13463;SDS011;6804;48.774;9.174;2023-02-15T01:22:00;15.87;;;12.90;;
13463;SDS011;6804;48.774;9.174;2023-02-15T01:24:34;18.03;;;13.30;;
13463;SDS011;6804;48.774;9.174;2023-02-15T01:27:04;16.70;;;12.80;;
13463;SDS011;6804;48.774;9.174;2023-02-15T01:29:31;18.00;;;13.07;;
13463;SDS011;6804;48.774;9.174;2023-02-15T01:31:59;16.20;;;12.60;;
13463;SDS011;6804;48.774;9.174;2023-02-15T01:34:28;18.30;;;13.20;;
13463;SDS011;6804;48.774;9.174;2023-02-15T01:36:56;17.07;;;12.77;;
13463;SDS011;6804;48.774;9.174;2023-02-15T01:39:24;16.70;;;12.30;;
13463;SDS011;6804;48.774;9.174;2023-02-15T01:41:52;15.17;;;12.60;;
13463;SDS011;6804;48.774;9.174;2023-02-15T01:47:23;17.10;;;11.93;;
13463;SDS011;6804;48.774;9.174;2023-02-15T01:49:59;16.27;;;12.57;;
13463;SDS011;6804;48.774;9.174;2023-02-15T01:52:29;16.03;;;11.83;;
13463;SDS011;6804;48.774;9.174;2023-02-15T01:55:00;18.97;;;12.73;;
13463;SDS011;6804;48.774;9.174;2023-02-15T01:57:36;15.37;;;11.73;;
13463;SDS011;6804;48.774;9.174;2023-02-15T02:00:04;15.83;;;12.17;;
13463;SDS011;6804;48.774;9.174;2023-02-15T02:02:34;16.87;;;11.80;;
13463;SDS011;6804;48.774;9.174;2023-02-15T02:05:02;13.87;;;11.53;;
13463;SDS011;6804;48.774;9.174;2023-02-15T02:07:34;17.37;;;12.50;;
13463;SDS011;6804;48.774;9.174;2023-02-15T02:10:05;14.90;;;12.50;;
13463;SDS011;6804;48.774;9.174;2023-02-15T02:12:33;13.73;;;11.30;;
13463;SDS011;6804;48.774;9.174;2023-02-15T02:15:05;17.20;;;12.23;;
13463;SDS011;6804;48.774;9.174;2023-02-15T02:17:35;17.00;;;12.17;;
13463;SDS011;6804;48.774;9.174;2023-02-15T02:20:25;17.60;;;11.70;;
13463;SDS011;6804;48.774;9.174;2023-02-15T02:23:13;16.07;;;11.97;;
13463;SDS011;6804;48.774;9.174;2023-02-15T02:25:59;18.03;;;12.43;;
13463;SDS011;6804;48.774;9.174;2023-02-15T02:29:02;15.47;;;12.30;;
13463;SDS011;6804;48.774;9.174;2023-02-15T02:35:13;16.17;;;12.10;;
13463;SDS011;6804;48.774;9.174;2023-02-15T02:37:48;16.93;;;12.33;;
13463;SDS011;6804;48.774;9.174;2023-02-15T02:40:25;15.40;;;11.07;;
13463;SDS011;6804;48.774;9.174;2023-02-15T02:43:03;14.30;;;11.67;;
13463;SDS011;6804;48.774;9.174;2023-02-15T02:45:39;15.00;;;11.47;;
13463;SDS011;6804;48.774;9.174;2023-02-15T02:48:12;17.23;;;11.67;;
13463;SDS011;6804;48.774;9.174;2023-02-15T02:50:47;16.17;;;12.33;;
13463;SDS011;6804;48.774;9.174;2023-02-15T02:53:14;15.83;;;11.80;;
13463;SDS011;6804;48.774;9.174;2023-02-15T02:55:42;13.67;;;10.77;;
13463;SDS011;6804;48.774;9.174;2023-02-15T02:58:14;20.87;;;14.27;;
13463;SDS011;6804;48.774;9.174;2023-02-15T03:00:48;19.00;;;14.30;;
13463;SDS011;6804;48.774;9.174;2023-02-15T03:03:24;19.53;;;14.73;;
13463;SDS011;6804;48.774;9.174;2023-02-15T03:05:56;19.43;;;13.83;;
13463;SDS011;6804;48.774;9.174;2023-02-15T03:08:27;20.13;;;13.43;;
13463;SDS011;6804;48.774;9.174;2023-02-15T03:10:59;19.50;;;13.37;;
13463;SDS011;6804;48.774;9.174;2023-02-15T03:13:28;20.70;;;14.60;;
13463;SDS011;6804;48.774;9.174;2023-02-15T03:15:58;16.20;;;13.47;;
13463;SDS011;6804;48.774;9.174;2023-02-15T03:18:46;17.97;;;13.37;;
13463;SDS011;6804;48.774;9.174;2023-02-15T03:21:20;19.40;;;13.40;;
13463;SDS011;6804;48.774;9.174;2023-02-15T03:23:54;18.00;;;13.47;;
13463;SDS011;6804;48.774;9.174;2023-02-15T03:26:25;20.90;;;13.77;;
13463;SDS011;6804;48.774;9.174;2023-02-15T03:28:55;19.17;;;13.40;;
13463;SDS011;6804;48.774;9.174;2023-02-15T03:31:26;17.03;;;13.23;;
13463;SDS011;6804;48.774;9.174;2023-02-15T03:33:57;18.27;;;12.43;;
13463;SDS011;6804;48.774;9.174;2023-02-15T03:36:30;18.93;;;13.67;;
13463;SDS011;6804;48.774;9.174;2023-02-15T03:39:07;20.20;;;14.33;;
13463;SDS011;6804;48.774;9.174;2023-02-15T03:41:39;19.60;;;14.00;;
13463;SDS011;6804;48.774;9.174;2023-02-15T03:44:13;22.43;;;13.97;;
13463;SDS011;6804;48.774;9.174;2023-02-15T03:46:47;19.83;;;14.80;;
13463;SDS011;6804;48.774;9.174;2023-02-15T03:49:20;20.37;;;13.97;;
13463;SDS011;6804;48.774;9.174;2023-02-15T03:51:52;22.27;;;15.27;;
13463;SDS011;6804;48.774;9.174;2023-02-15T03:54:27;21.30;;;14.60;;
13463;SDS011;6804;48.774;9.174;2023-02-15T03:57:12;22.13;;;14.43;;
13463;SDS011;6804;48.774;9.174;2023-02-15T03:59:59;22.47;;;14.63;;
13463;SDS011;6804;48.774;9.174;2023-02-15T04:02:48;22.40;;;14.83;;
13463;SDS011;6804;48.774;9.174;2023-02-15T04:05:28;19.40;;;13.93;;
13463;SDS011;6804;48.774;9.174;2023-02-15T04:07:57;20.73;;;14.57;;
13463;SDS011;6804;48.774;9.174;2023-02-15T04:10:28;18.57;;;12.83;;
13463;SDS011;6804;48.774;9.174;2023-02-15T04:13:12;17.07;;;12.57;;
13463;SDS011;6804;48.774;9.174;2023-02-15T04:15:42;19.70;;;13.47;;
13463;SDS011;6804;48.774;9.174;2023-02-15T04:18:26;20.17;;;13.90;;
13463;SDS011;6804;48.774;9.174;2023-02-15T04:21:12;20.77;;;14.07;;
13463;SDS011;6804;48.774;9.174;2023-02-15T04:23:57;20.33;;;13.53;;
13463;SDS011;6804;48.774;9.174;2023-02-15T04:26:42;19.20;;;13.33;;
13463;SDS011;6804;48.774;9.174;2023-02-15T04:29:09;19.43;;;14.50;;
13463;SDS011;6804;48.774;9.174;2023-02-15T04:31:38;20.10;;;13.77;;
13463;SDS011;6804;48.774;9.174;2023-02-15T04:34:05;19.20;;;13.20;;
13463;SDS011;6804;48.774;9.174;2023-02-15T04:36:33;19.50;;;14.03;;
13463;SDS011;6804;48.774;9.174;2023-02-15T04:39:01;21.13;;;14.40;;
13463;SDS011;6804;48.774;9.174;2023-02-15T04:41:29;19.17;;;13.77;;
13463;SDS011;6804;48.774;9.174;2023-02-15T04:43:59;19.23;;;12.10;;
13463;SDS011;6804;48.774;9.174;2023-02-15T04:46:29;22.00;;;13.93;;
13463;SDS011;6804;48.774;9.174;2023-02-15T04:49:00;18.90;;;13.57;;
13463;SDS011;6804;48.774;9.174;2023-02-15T04:51:28;16.30;;;11.90;;
13463;SDS011;6804;48.774;9.174;2023-02-15T04:53:55;16.27;;;12.40;;
13463;SDS011;6804;48.774;9.174;2023-02-15T04:56:24;16.90;;;12.53;;
13463;SDS011;6804;48.774;9.174;2023-02-15T04:58:51;17.17;;;11.90;;
13463;SDS011;6804;48.774;9.174;2023-02-15T05:01:18;19.43;;;13.43;;
13463;SDS011;6804;48.774;9.174;2023-02-15T05:03:46;19.20;;;13.17;;
13463;SDS011;6804;48.774;9.174;2023-02-15T05:06:23;19.23;;;13.20;;
13463;SDS011;6804;48.774;9.174;2023-02-15T05:08:54;19.43;;;12.70;;
13463;SDS011;6804;48.774;9.174;2023-02-15T05:11:26;16.67;;;12.83;;
13463;SDS011;6804;48.774;9.174;2023-02-15T05:13:55;19.37;;;12.87;;
13463;SDS011;6804;48.774;9.174;2023-02-15T05:16:25;20.20;;;12.93;;
13463;SDS011;6804;48.774;9.174;2023-02-15T05:18:55;16.67;;;12.77;;
13463;SDS011;6804;48.774;9.174;2023-02-15T05:21:23;18.00;;;12.17;;
13463;SDS011;6804;48.774;9.174;2023-02-15T05:23:51;16.33;;;12.20;;
13463;SDS011;6804;48.774;9.174;2023-02-15T05:26:20;17.33;;;12.40;;
13463;SDS011;6804;48.774;9.174;2023-02-15T05:29:07;15.33;;;11.10;;
13463;SDS011;6804;48.774;9.174;2023-02-15T05:31:41;17.47;;;11.77;;
13463;SDS011;6804;48.774;9.174;2023-02-15T05:34:12;16.57;;;12.43;;
13463;SDS011;6804;48.774;9.174;2023-02-15T05:36:39;17.37;;;12.63;;
13463;SDS011;6804;48.774;9.174;2023-02-15T05:39:07;17.33;;;12.10;;
13463;SDS011;6804;48.774;9.174;2023-02-15T05:41:37;17.93;;;11.67;;
13463;SDS011;6804;48.774;9.174;2023-02-15T05:44:09;17.53;;;11.70;;
13463;SDS011;6804;48.774;9.174;2023-02-15T05:46:37;17.43;;;11.80;;
13463;SDS011;6804;48.774;9.174;2023-02-15T05:49:06;17.27;;;12.77;;
13463;SDS011;6804;48.774;9.174;2023-02-15T05:51:42;16.87;;;11.60;;
13463;SDS011;6804;48.774;9.174;2023-02-15T05:54:11;19.70;;;12.20;;
13463;SDS011;6804;48.774;9.174;2023-02-15T05:56:38;17.57;;;12.27;;
13463;SDS011;6804;48.774;9.174;2023-02-15T05:59:05;18.30;;;12.30;;
13463;SDS011;6804;48.774;9.174;2023-02-15T06:01:35;16.83;;;12.10;;
13463;SDS011;6804;48.774;9.174;2023-02-15T06:04:02;16.37;;;11.43;;
13463;SDS011;6804;48.774;9.174;2023-02-15T06:06:32;17.27;;;11.97;;
13463;SDS011;6804;48.774;9.174;2023-02-15T06:08:59;17.10;;;11.93;;
13463;SDS011;6804;48.774;9.174;2023-02-15T06:11:29;18.17;;;11.13;;
13463;SDS011;6804;48.774;9.174;2023-02-15T06:13:56;16.37;;;12.00;;
13463;SDS011;6804;48.774;9.174;2023-02-15T06:16:24;17.60;;;12.03;;
13463;SDS011;6804;48.774;9.174;2023-02-15T06:18:55;18.90;;;12.90;;
13463;SDS011;6804;48.774;9.174;2023-02-15T06:21:24;18.80;;;13.67;;
13463;SDS011;6804;48.774;9.174;2023-02-15T06:23:51;15.17;;;11.73;;
13463;SDS011;6804;48.774;9.174;2023-02-15T06:26:18;16.43;;;11.63;;
13463;SDS011;6804;48.774;9.174;2023-02-15T06:28:46;21.00;;;13.77;;
13463;SDS011;6804;48.774;9.174;2023-02-15T06:31:13;17.53;;;12.70;;
13463;SDS011;6804;48.774;9.174;2023-02-15T06:33:44;22.50;;;14.97;;
13463;SDS011;6804;48.774;9.174;2023-02-15T06:36:12;19.10;;;12.57;;
13463;SDS011;6804;48.774;9.174;2023-02-15T06:38:39;15.37;;;12.00;;
13463;SDS011;6804;48.774;9.174;2023-02-15T06:41:12;18.00;;;12.80;;
13463;SDS011;6804;48.774;9.174;2023-02-15T06:43:39;20.87;;;12.60;;
13463;SDS011;6804;48.774;9.174;2023-02-15T06:46:09;17.60;;;12.33;;
13463;SDS011;6804;48.774;9.174;2023-02-15T06:48:36;18.37;;;12.80;;
13463;SDS011;6804;48.774;9.174;2023-02-15T06:51:04;18.43;;;12.67;;
13463;SDS011;6804;48.774;9.174;2023-02-15T06:53:33;18.20;;;12.73;;
13463;SDS011;6804;48.774;9.174;2023-02-15T06:56:01;21.10;;;14.23;;
13463;SDS011;6804;48.774;9.174;2023-02-15T06:58:31;21.23;;;12.73;;
13463;SDS011;6804;48.774;9.174;2023-02-15T07:01:01;20.50;;;12.73;;
13463;SDS011;6804;48.774;9.174;2023-02-15T07:03:32;19.07;;;12.27;;
13463;SDS011;6804;48.774;9.174;2023-02-15T07:06:00;19.00;;;13.20;;
13463;SDS011;6804;48.774;9.174;2023-02-15T07:08:32;17.73;;;12.13;;
13463;SDS011;6804;48.774;9.174;2023-02-15T07:11:00;17.90;;;12.47;;
13463;SDS011;6804;48.774;9.174;2023-02-15T07:13:42;15.83;;;11.40;;
13463;SDS011;6804;48.774;9.174;2023-02-15T07:16:14;16.70;;;11.37;;
13463;SDS011;6804;48.774;9.174;2023-02-15T07:18:42;19.07;;;12.53;;
13463;SDS011;6804;48.774;9.174;2023-02-15T07:21:11;18.67;;;12.20;;
13463;SDS011;6804;48.774;9.174;2023-02-15T07:23:42;18.20;;;13.07;;
13463;SDS011;6804;48.774;9.174;2023-02-15T07:26:09;19.47;;;12.73;;
13463;SDS011;6804;48.774;9.174;2023-02-15T07:28:37;17.43;;;12.63;;
13463;SDS011;6804;48.774;9.174;2023-02-15T07:31:05;18.93;;;12.50;;
13463;SDS011;6804;48.774;9.174;2023-02-15T07:33:35;17.63;;;12.90;;
13463;SDS011;6804;48.774;9.174;2023-02-15T07:36:03;21.53;;;13.60;;
13463;SDS011;6804;48.774;9.174;2023-02-15T07:38:32;22.50;;;14.33;;
13463;SDS011;6804;48.774;9.174;2023-02-15T07:41:05;20.80;;;13.53;;
13463;SDS011;6804;48.774;9.174;2023-02-15T07:43:36;22.47;;;13.97;;
13463;SDS011;6804;48.774;9.174;2023-02-15T07:46:08;24.03;;;14.97;;
13463;SDS011;6804;48.774;9.174;2023-02-15T07:48:40;26.13;;;14.40;;
13463;SDS011;6804;48.774;9.174;2023-02-15T07:51:09;25.67;;;15.93;;
13463;SDS011;6804;48.774;9.174;2023-02-15T07:53:41;23.33;;;15.50;;
13463;SDS011;6804;48.774;9.174;2023-02-15T07:56:16;25.07;;;15.37;;
13463;SDS011;6804;48.774;9.174;2023-02-15T07:58:43;22.70;;;15.40;;
13463;SDS011;6804;48.774;9.174;2023-02-15T08:01:18;26.30;;;15.07;;
13463;SDS011;6804;48.774;9.174;2023-02-15T08:03:47;26.73;;;15.97;;
13463;SDS011;6804;48.774;9.174;2023-02-15T08:06:14;23.77;;;14.00;;
13463;SDS011;6804;48.774;9.174;2023-02-15T08:08:45;22.20;;;15.03;;
13463;SDS011;6804;48.774;9.174;2023-02-15T08:11:17;20.57;;;13.67;;
13463;SDS011;6804;48.774;9.174;2023-02-15T08:13:55;21.73;;;13.23;;
13463;SDS011;6804;48.774;9.174;2023-02-15T08:16:25;22.73;;;15.40;;
13463;SDS011;6804;48.774;9.174;2023-02-15T08:18:54;20.80;;;13.83;;
13463;SDS011;6804;48.774;9.174;2023-02-15T08:21:25;20.50;;;13.93;;
13463;SDS011;6804;48.774;9.174;2023-02-15T08:23:54;21.00;;;14.57;;
13463;SDS011;6804;48.774;9.174;2023-02-15T08:26:23;22.20;;;14.20;;
13463;SDS011;6804;48.774;9.174;2023-02-15T08:28:52;23.27;;;14.43;;
13463;SDS011;6804;48.774;9.174;2023-02-15T08:31:20;20.00;;;13.57;;
13463;SDS011;6804;48.774;9.174;2023-02-15T08:33:48;20.73;;;13.93;;
13463;SDS011;6804;48.774;9.174;2023-02-15T08:36:17;21.53;;;14.40;;
13463;SDS011;6804;48.774;9.174;2023-02-15T08:38:46;21.70;;;13.23;;
13463;SDS011;6804;48.774;9.174;2023-02-15T08:41:16;21.33;;;14.37;;
13463;SDS011;6804;48.774;9.174;2023-02-15T08:43:47;19.30;;;13.47;;
13463;SDS011;6804;48.774;9.174;2023-02-15T08:46:17;17.47;;;12.37;;
13463;SDS011;6804;48.774;9.174;2023-02-15T08:48:45;18.97;;;13.77;;
13463;SDS011;6804;48.774;9.174;2023-02-15T08:51:13;22.50;;;14.13;;
13463;SDS011;6804;48.774;9.174;2023-02-15T08:53:43;21.10;;;14.80;;
13463;SDS011;6804;48.774;9.174;2023-02-15T08:56:17;20.90;;;14.03;;
13463;SDS011;6804;48.774;9.174;2023-02-15T08:58:46;21.20;;;14.43;;
13463;SDS011;6804;48.774;9.174;2023-02-15T09:01:14;24.23;;;14.73;;
13463;SDS011;6804;48.774;9.174;2023-02-15T09:03:48;24.30;;;14.10;;
13463;SDS011;6804;48.774;9.174;2023-02-15T09:06:18;23.90;;;15.13;;
13463;SDS011;6804;48.774;9.174;2023-02-15T09:08:45;19.70;;;14.23;;
13463;SDS011;6804;48.774;9.174;2023-02-15T09:11:14;18.77;;;13.23;;
13463;SDS011;6804;48.774;9.174;2023-02-15T09:13:49;20.93;;;15.30;;
13463;SDS011;6804;48.774;9.174;2023-02-15T09:16:18;20.47;;;14.73;;
13463;SDS011;6804;48.774;9.174;2023-02-15T09:18:46;21.30;;;13.57;;
13463;SDS011;6804;48.774;9.174;2023-02-15T09:21:15;21.53;;;14.27;;
13463;SDS011;6804;48.774;9.174;2023-02-15T09:23:44;20.47;;;14.10;;
13463;SDS011;6804;48.774;9.174;2023-02-15T09:26:16;19.53;;;14.20;;
13463;SDS011;6804;48.774;9.174;2023-02-15T09:28:51;19.30;;;14.07;;
13463;SDS011;6804;48.774;9.174;2023-02-15T09:31:22;22.20;;;14.97;;
13463;SDS011;6804;48.774;9.174;2023-02-15T09:33:51;19.43;;;15.40;;
13463;SDS011;6804;48.774;9.174;2023-02-15T09:36:21;22.43;;;14.90;;
13463;SDS011;6804;48.774;9.174;2023-02-15T09:38:52;21.50;;;14.80;;
13463;SDS011;6804;48.774;9.174;2023-02-15T09:41:27;21.63;;;13.87;;
13463;SDS011;6804;48.774;9.174;2023-02-15T09:44:09;20.60;;;14.60;;
13463;SDS011;6804;48.774;9.174;2023-02-15T09:49:40;20.07;;;14.23;;
13463;SDS011;6804;48.774;9.174;2023-02-15T09:52:17;17.67;;;13.80;;
13463;SDS011;6804;48.774;9.174;2023-02-15T09:55:03;21.57;;;14.63;;
13463;SDS011;6804;48.774;9.174;2023-02-15T09:57:47;20.70;;;14.60;;
13463;SDS011;6804;48.774;9.174;2023-02-15T10:00:27;19.97;;;14.63;;
13463;SDS011;6804;48.774;9.174;2023-02-15T10:03:16;19.80;;;14.77;;
13463;SDS011;6804;48.774;9.174;2023-02-15T10:06:04;18.97;;;14.23;;
13463;SDS011;6804;48.774;9.174;2023-02-15T10:08:49;20.50;;;15.03;;
13463;SDS011;6804;48.774;9.174;2023-02-15T10:11:28;18.03;;;14.17;;
13463;SDS011;6804;48.774;9.174;2023-02-15T10:17:06;21.20;;;14.37;;
13463;SDS011;6804;48.774;9.174;2023-02-15T10:19:44;20.43;;;14.97;;
13463;SDS011;6804;48.774;9.174;2023-02-15T10:22:24;21.97;;;15.63;;
13463;SDS011;6804;48.774;9.174;2023-02-15T10:25:08;19.10;;;14.17;;
13463;SDS011;6804;48.774;9.174;2023-02-15T10:27:55;21.30;;;15.50;;
13463;SDS011;6804;48.774;9.174;2023-02-15T10:30:30;24.73;;;15.60;;
13463;SDS011;6804;48.774;9.174;2023-02-15T10:33:09;19.03;;;15.47;;
13463;SDS011;6804;48.774;9.174;2023-02-15T10:35:46;21.27;;;15.93;;
13463;SDS011;6804;48.774;9.174;2023-02-15T10:38:29;18.73;;;14.40;;
13463;SDS011;6804;48.774;9.174;2023-02-15T10:41:04;22.87;;;14.67;;
13463;SDS011;6804;48.774;9.174;2023-02-15T10:43:44;23.77;;;16.70;;
13463;SDS011;6804;48.774;9.174;2023-02-15T10:46:28;26.80;;;18.60;;
13463;SDS011;6804;48.774;9.174;2023-02-15T10:49:29;28.63;;;17.80;;
13463;SDS011;6804;48.774;9.174;2023-02-15T10:52:23;24.73;;;16.73;;
13463;SDS011;6804;48.774;9.174;2023-02-15T10:55:02;21.53;;;15.00;;
13463;SDS011;6804;48.774;9.174;2023-02-15T10:57:41;21.30;;;14.97;;
13463;SDS011;6804;48.774;9.174;2023-02-15T11:00:19;19.70;;;14.43;;
13463;SDS011;6804;48.774;9.174;2023-02-15T11:03:03;21.30;;;15.70;;
13463;SDS011;6804;48.774;9.174;2023-02-15T11:05:48;21.33;;;15.13;;
13463;SDS011;6804;48.774;9.174;2023-02-15T11:08:24;20.33;;;15.07;;
13463;SDS011;6804;48.774;9.174;2023-02-15T11:11:02;17.77;;;14.70;;
13463;SDS011;6804;48.774;9.174;2023-02-15T11:13:34;24.80;;;15.60;;
13463;SDS011;6804;48.774;9.174;2023-02-15T11:16:06;21.47;;;15.23;;
13463;SDS011;6804;48.774;9.174;2023-02-15T11:18:43;20.23;;;15.60;;
13463;SDS011;6804;48.774;9.174;2023-02-15T11:21:27;18.20;;;14.70;;
13463;SDS011;6804;48.774;9.174;2023-02-15T11:24:07;25.40;;;16.60;;
13463;SDS011;6804;48.774;9.174;2023-02-15T11:26:40;19.90;;;15.60;;
13463;SDS011;6804;48.774;9.174;2023-02-15T11:29:18;23.47;;;15.40;;
13463;SDS011;6804;48.774;9.174;2023-02-15T11:31:55;20.43;;;16.23;;
13463;SDS011;6804;48.774;9.174;2023-02-15T11:34:32;20.53;;;15.00;;
13463;SDS011;6804;48.774;9.174;2023-02-15T11:37:05;20.80;;;16.17;;
13463;SDS011;6804;48.774;9.174;2023-02-15T11:39:37;19.97;;;16.07;;
13463;SDS011;6804;48.774;9.174;2023-02-15T11:42:12;21.13;;;15.37;;
13463;SDS011;6804;48.774;9.174;2023-02-15T11:44:44;21.57;;;14.50;;
13463;SDS011;6804;48.774;9.174;2023-02-15T11:47:19;22.63;;;14.93;;
13463;SDS011;6804;48.774;9.174;2023-02-15T11:49:49;21.40;;;14.17;;
13463;SDS011;6804;48.774;9.174;2023-02-15T11:52:19;23.87;;;17.03;;
13463;SDS011;6804;48.774;9.174;2023-02-15T11:54:49;21.07;;;16.00;;
13463;SDS011;6804;48.774;9.174;2023-02-15T11:57:22;20.37;;;15.27;;
13463;SDS011;6804;48.774;9.174;2023-02-15T11:59:55;20.63;;;15.17;;
13463;SDS011;6804;48.774;9.174;2023-02-15T12:02:32;21.43;;;15.40;;
13463;SDS011;6804;48.774;9.174;2023-02-15T12:05:03;18.97;;;15.50;;
13463;SDS011;6804;48.774;9.174;2023-02-15T12:07:40;19.40;;;15.60;;
13463;SDS011;6804;48.774;9.174;2023-02-15T12:10:16;19.33;;;16.03;;
13463;SDS011;6804;48.774;9.174;2023-02-15T12:13:08;19.57;;;15.73;;
13463;SDS011;6804;48.774;9.174;2023-02-15T12:15:36;22.43;;;16.60;;
13463;SDS011;6804;48.774;9.174;2023-02-15T12:18:15;20.43;;;16.43;;
13463;SDS011;6804;48.774;9.174;2023-02-15T12:20:51;21.30;;;15.70;;
13463;SDS011;6804;48.774;9.174;2023-02-15T12:23:20;20.13;;;16.03;;
13463;SDS011;6804;48.774;9.174;2023-02-15T12:25:51;25.60;;;16.57;;
13463;SDS011;6804;48.774;9.174;2023-02-15T12:28:25;22.67;;;15.20;;
13463;SDS011;6804;48.774;9.174;2023-02-15T12:30:59;19.57;;;15.37;;
13463;SDS011;6804;48.774;9.174;2023-02-15T12:33:35;21.57;;;16.10;;
13463;SDS011;6804;48.774;9.174;2023-02-15T12:36:15;19.27;;;16.23;;
13463;SDS011;6804;48.774;9.174;2023-02-15T12:39:09;24.13;;;16.37;;
13463;SDS011;6804;48.774;9.174;2023-02-15T12:41:45;22.40;;;15.10;;
13463;SDS011;6804;48.774;9.174;2023-02-15T12:44:24;21.23;;;16.40;;
13463;SDS011;6804;48.774;9.174;2023-02-15T12:46:57;23.33;;;16.93;;
13463;SDS011;6804;48.774;9.174;2023-02-15T12:49:29;25.77;;;18.83;;
13463;SDS011;6804;48.774;9.174;2023-02-15T12:52:03;27.37;;;18.73;;
13463;SDS011;6804;48.774;9.174;2023-02-15T12:54:38;23.10;;;16.43;;
13463;SDS011;6804;48.774;9.174;2023-02-15T12:57:14;21.43;;;16.60;;
13463;SDS011;6804;48.774;9.174;2023-02-15T12:59:51;26.50;;;17.13;;
13463;SDS011;6804;48.774;9.174;2023-02-15T13:02:24;23.43;;;17.27;;
13463;SDS011;6804;48.774;9.174;2023-02-15T13:05:07;21.40;;;15.77;;
13463;SDS011;6804;48.774;9.174;2023-02-15T13:07:45;22.53;;;16.50;;
13463;SDS011;6804;48.774;9.174;2023-02-15T13:10:25;22.57;;;15.80;;
13463;SDS011;6804;48.774;9.174;2023-02-15T13:12:56;23.30;;;17.30;;
13463;SDS011;6804;48.774;9.174;2023-02-15T13:15:25;20.33;;;16.07;;
13463;SDS011;6804;48.774;9.174;2023-02-15T13:18:01;21.33;;;17.03;;
13463;SDS011;6804;48.774;9.174;2023-02-15T13:20:32;21.47;;;16.00;;
13463;SDS011;6804;48.774;9.174;2023-02-15T13:23:22;21.47;;;16.93;;
13463;SDS011;6804;48.774;9.174;2023-02-15T13:25:58;21.37;;;16.47;;
13463;SDS011;6804;48.774;9.174;2023-02-15T13:28:35;21.83;;;16.50;;
13463;SDS011;6804;48.774;9.174;2023-02-15T13:31:08;17.47;;;15.10;;
13463;SDS011;6804;48.774;9.174;2023-02-15T13:33:41;21.67;;;16.47;;
13463;SDS011;6804;48.774;9.174;2023-02-15T13:36:16;19.27;;;15.53;;
13463;SDS011;6804;48.774;9.174;2023-02-15T13:38:54;21.57;;;16.53;;
13463;SDS011;6804;48.774;9.174;2023-02-15T13:41:47;20.67;;;16.27;;
13463;SDS011;6804;48.774;9.174;2023-02-15T13:44:26;19.63;;;15.93;;
13463;SDS011;6804;48.774;9.174;2023-02-15T13:47:13;19.70;;;15.00;;
13463;SDS011;6804;48.774;9.174;2023-02-15T13:49:54;21.60;;;16.73;;
13463;SDS011;6804;48.774;9.174;2023-02-15T13:52:41;16.57;;;14.30;;
13463;SDS011;6804;48.774;9.174;2023-02-15T13:55:24;24.03;;;16.37;;
13463;SDS011;6804;48.774;9.174;2023-02-15T14:00:58;18.97;;;15.63;;
13463;SDS011;6804;48.774;9.174;2023-02-15T14:03:38;21.03;;;16.63;;
13463;SDS011;6804;48.774;9.174;2023-02-15T14:09:51;18.40;;;16.47;;
13463;SDS011;6804;48.774;9.174;2023-02-15T14:12:32;21.73;;;16.37;;
13463;SDS011;6804;48.774;9.174;2023-02-15T14:15:20;19.33;;;14.70;;
13463;SDS011;6804;48.774;9.174;2023-02-15T14:17:59;26.17;;;16.80;;
13463;SDS011;6804;48.774;9.174;2023-02-15T14:20:47;28.27;;;15.37;;
13463;SDS011;6804;48.774;9.174;2023-02-15T14:23:27;20.77;;;15.40;;
13463;SDS011;6804;48.774;9.174;2023-02-15T14:26:05;17.70;;;14.60;;
13463;SDS011;6804;48.774;9.174;2023-02-15T14:28:39;17.07;;;14.50;;
13463;SDS011;6804;48.774;9.174;2023-02-15T14:31:15;16.93;;;14.50;;
13463;SDS011;6804;48.774;9.174;2023-02-15T14:33:52;18.73;;;14.10;;
13463;SDS011;6804;48.774;9.174;2023-02-15T14:36:24;18.47;;;14.30;;
13463;SDS011;6804;48.774;9.174;2023-02-15T14:39:00;18.27;;;14.30;;
13463;SDS011;6804;48.774;9.174;2023-02-15T14:42:02;18.53;;;15.00;;
13463;SDS011;6804;48.774;9.174;2023-02-15T14:44:38;17.50;;;14.40;;
13463;SDS011;6804;48.774;9.174;2023-02-15T14:47:10;16.93;;;13.97;;
13463;SDS011;6804;48.774;9.174;2023-02-15T14:49:48;18.47;;;14.63;;
13463;SDS011;6804;48.774;9.174;2023-02-15T14:52:15;20.43;;;14.47;;
13463;SDS011;6804;48.774;9.174;2023-02-15T14:54:53;21.80;;;14.83;;
13463;SDS011;6804;48.774;9.174;2023-02-15T14:57:27;21.33;;;15.63;;
13463;SDS011;6804;48.774;9.174;2023-02-15T14:59:57;20.00;;;14.07;;
13463;SDS011;6804;48.774;9.174;2023-02-15T15:02:29;17.13;;;14.30;;
13463;SDS011;6804;48.774;9.174;2023-02-15T15:05:07;19.63;;;13.63;;
13463;SDS011;6804;48.774;9.174;2023-02-15T15:07:38;18.53;;;13.17;;
13463;SDS011;6804;48.774;9.174;2023-02-15T15:19:07;19.10;;;13.97;;
13463;SDS011;6804;48.774;9.174;2023-02-15T15:24:46;20.10;;;14.80;;
13463;SDS011;6804;48.774;9.174;2023-02-15T15:33:22;18.67;;;13.77;;
13463;SDS011;6804;48.774;9.174;2023-02-15T15:42:49;18.93;;;14.43;;
13463;SDS011;6804;48.774;9.174;2023-02-15T15:45:41;18.00;;;13.17;;
13463;SDS011;6804;48.774;9.174;2023-02-15T15:48:30;16.97;;;13.87;;
13463;SDS011;6804;48.774;9.174;2023-02-15T15:51:06;17.43;;;14.10;;
13463;SDS011;6804;48.774;9.174;2023-02-15T15:53:40;20.07;;;14.77;;